createdAt,value
2022-11-15T00:01:35.666Z,96937.41
2022-11-15T00:05:55.700Z,96923.13
2022-11-15T00:10:14.508Z,96951.63
2022-11-15T00:14:33.241Z,96944.03
2022-11-15T00:18:55.015Z,96947.09
2022-11-15T00:23:14.271Z,96943.06
2022-11-15T00:27:33.038Z,96943.00
2022-11-15T00:31:51.440Z,96938.63
2022-11-15T00:36:14.114Z,96949.22
2022-11-15T00:40:33.548Z,96930.78
2022-11-15T00:44:52.265Z,96934.78
2022-11-15T00:49:10.749Z,96926.44
2022-11-15T00:53:32.389Z,96920.88
2022-11-15T00:57:51.412Z,96917.50
2022-11-15T01:02:10.194Z,96901.56
2022-11-15T01:06:29.011Z,96895.13
2022-11-15T01:10:50.200Z,96900.44
2022-11-15T01:15:10.628Z,96887.72
2022-11-15T01:19:29.367Z,96897.53
2022-11-15T01:23:48.622Z,96884.72
2022-11-15T01:28:09.913Z,96884.81
2022-11-15T01:32:28.418Z,96879.84
2022-11-15T01:36:47.227Z,96874.03
2022-11-15T01:41:06.532Z,96878.69
2022-11-15T01:45:28.008Z,96868.88
2022-11-15T01:49:57.089Z,96865.97
2022-11-15T01:54:22.864Z,96860.16
2022-11-15T01:58:44.957Z,96851.25
2022-11-15T02:03:06.780Z,96855.03
2022-11-15T02:07:28.847Z,96857.28
2022-11-15T02:11:50.424Z,96833.38
2022-11-15T02:16:22.279Z,96852.50
2022-11-15T02:21:21.223Z,96860.16
2022-11-15T02:25:53.522Z,96857.22
2022-11-15T02:30:30.025Z,96849.44
2022-11-15T02:34:58.827Z,96836.53
2022-11-15T02:39:29.313Z,96829.66
2022-11-15T02:44:00.762Z,96823.31
2022-11-15T02:48:25.109Z,96829.22
2022-11-15T02:52:43.754Z,96826.44
2022-11-15T02:57:07.783Z,96824.63
2022-11-15T03:01:45.334Z,96811.69
2022-11-15T03:06:24.557Z,96792.69
2022-11-15T03:10:56.085Z,96804.28
2022-11-15T03:15:23.637Z,96809.00
2022-11-15T03:19:49.414Z,96794.25
2022-11-15T03:24:12.617Z,96804.63
2022-11-15T03:28:42.992Z,96772.72
2022-11-15T03:33:07.130Z,96791.84
2022-11-15T03:37:34.479Z,96787.81
2022-11-15T03:42:07.965Z,96789.06
2022-11-15T03:46:33.024Z,96791.00
2022-11-15T03:50:52.620Z,96774.78
2022-11-15T03:55:16.564Z,96763.78
2022-11-15T03:59:38.083Z,96777.09
2022-11-15T04:03:56.752Z,96773.88
2022-11-15T04:08:15.265Z,96771.34
2022-11-15T04:12:37.325Z,96767.34
2022-11-15T04:16:58.404Z,96774.16
2022-11-15T04:21:29.281Z,96782.94
2022-11-15T04:25:50.320Z,96775.56
2022-11-15T04:30:11.849Z,96782.00
2022-11-15T04:34:33.770Z,96778.22
2022-11-15T04:38:52.384Z,96765.88
2022-11-15T04:43:11.190Z,96764.25
2022-11-15T04:47:31.502Z,96766.34
2022-11-15T04:51:52.621Z,96762.88
2022-11-15T04:56:11.421Z,96757.56
2022-11-15T05:00:31.763Z,96767.03
2022-11-15T05:04:50.215Z,96758.69
2022-11-15T05:09:11.595Z,96718.75
2022-11-15T05:13:30.546Z,96738.66
2022-11-15T05:17:49.916Z,96741.09
2022-11-15T05:22:08.676Z,96748.56
2022-11-15T05:26:30.139Z,96739.13
2022-11-15T05:30:48.545Z,96745.41
2022-11-15T05:35:12.854Z,96736.31
2022-11-15T05:39:31.563Z,96741.97
2022-11-15T05:43:54.200Z,96740.03
2022-11-15T05:48:14.650Z,96709.44
2022-11-15T05:52:39.981Z,96739.31
2022-11-15T05:56:58.672Z,96741.84
2022-11-15T06:01:19.889Z,96724.41
2022-11-15T06:05:39.160Z,96728.19
2022-11-15T06:09:58.104Z,96728.78
2022-11-15T06:14:16.758Z,96728.09
2022-11-15T06:18:40.202Z,96728.09
2022-11-15T06:23:01.876Z,96734.31
2022-11-15T06:27:20.464Z,96730.66
2022-11-15T06:31:39.353Z,96743.78
2022-11-15T06:36:05.163Z,96735.81
2022-11-15T06:40:23.818Z,96740.06
2022-11-15T06:44:42.764Z,96742.25
2022-11-15T06:49:05.285Z,96739.34
2022-11-15T06:53:32.082Z,96749.03
2022-11-15T06:57:52.347Z,96743.06
2022-11-15T07:02:16.187Z,96744.91
2022-11-15T07:06:34.971Z,96750.66
2022-11-15T07:11:11.570Z,96731.59
2022-11-15T07:15:34.275Z,96741.72
2022-11-15T07:19:53.140Z,96741.34
2022-11-15T07:24:12.202Z,96727.78
2022-11-15T07:28:34.267Z,96741.34
2022-11-15T07:32:58.707Z,96742.25
2022-11-15T07:37:18.104Z,96753.16
2022-11-15T07:41:38.379Z,96753.59
2022-11-15T07:46:03.064Z,96758.59
2022-11-15T07:50:23.474Z,96726.41
2022-11-15T07:54:42.944Z,96746.03
2022-11-15T07:59:06.316Z,96714.16
2022-11-15T08:03:31.311Z,96745.72
2022-11-15T08:07:52.696Z,96727.16
2022-11-15T08:12:11.772Z,96706.66
2022-11-15T08:16:30.565Z,96726.91
2022-11-15T08:20:51.619Z,96714.50
2022-11-15T08:25:11.650Z,96693.03
2022-11-15T08:29:30.723Z,96705.28
2022-11-15T08:33:49.992Z,96693.13
2022-11-15T08:38:12.376Z,96695.66
2022-11-15T08:42:31.398Z,96694.19
2022-11-15T08:46:50.413Z,96691.19
2022-11-15T08:51:20.970Z,96680.81
2022-11-15T08:55:44.882Z,96679.41
2022-11-15T09:00:05.002Z,96663.22
2022-11-15T09:04:24.655Z,96638.81
2022-11-15T09:08:47.822Z,96654.38
2022-11-15T09:13:15.396Z,96678.66
2022-11-15T09:17:35.527Z,96675.88
2022-11-15T09:21:54.882Z,96667.66
2022-11-15T09:26:15.307Z,96664.31
2022-11-15T09:30:37.797Z,96623.69
2022-11-15T09:46:49.878Z,96561.59
2022-11-15T09:52:04.002Z,96652.59
2022-11-15T09:56:34.250Z,96535.25
2022-11-15T10:00:48.031Z,96581.69
2022-11-15T10:04:55.443Z,96582.59
2022-11-15T10:09:03.673Z,96562.81
2022-11-15T10:13:04.392Z,96576.16
2022-11-15T10:17:52.316Z,96550.25
2022-11-15T10:22:12.790Z,96575.78
2022-11-15T10:26:19.914Z,96531.78
2022-11-15T10:30:26.203Z,96540.56
2022-11-15T10:34:30.652Z,96521.50
2022-11-15T10:38:34.099Z,96552.78
2022-11-15T10:42:34.643Z,96538.41
2022-11-15T10:46:46.760Z,96506.06
2022-11-15T10:50:50.736Z,96497.66
2022-11-15T10:54:59.615Z,96495.97
2022-11-15T10:59:05.623Z,96485.91
2022-11-15T11:03:33.803Z,96496.94
2022-11-15T11:07:45.497Z,96496.31
2022-11-15T11:11:54.781Z,96477.88
2022-11-15T11:16:10.090Z,96485.03
2022-11-15T11:20:23.636Z,96455.41
2022-11-15T11:24:37.501Z,96481.00
2022-11-15T11:28:54.769Z,96459.28
2022-11-15T11:33:12.165Z,96466.06
2022-11-15T11:37:24.514Z,96462.16
2022-11-15T11:41:46.960Z,96460.31
2022-11-15T11:46:17.330Z,96437.97
2022-11-15T11:50:23.145Z,96431.25
2022-11-15T11:54:34.827Z,96431.00
2022-11-15T11:58:42.287Z,96432.69
2022-11-15T12:02:51.656Z,96420.22
2022-11-15T12:06:57.254Z,96412.56
2022-11-15T12:11:11.027Z,96410.09
2022-11-15T12:15:20.226Z,96398.91
2022-11-15T12:19:22.894Z,96400.03
2022-11-15T12:23:30.379Z,96389.34
2022-11-15T12:27:40.430Z,96389.88
2022-11-15T12:31:45.750Z,96383.88
2022-11-15T12:36:02.054Z,96380.94
2022-11-15T12:40:24.749Z,96377.84
2022-11-15T12:45:02.756Z,96376.78
2022-11-15T12:49:05.536Z,96378.84
2022-11-15T12:53:41.231Z,96352.78
2022-11-15T12:57:56.998Z,96367.94
2022-11-15T13:02:04.634Z,96340.38
2022-11-15T13:06:14.548Z,96325.75
2022-11-15T13:10:38.019Z,96327.75
2022-11-15T13:14:56.738Z,96337.44
2022-11-15T13:19:02.022Z,96357.19
2022-11-15T13:23:13.745Z,96350.31
2022-11-15T13:27:26.542Z,96304.72
2022-11-15T13:31:40.016Z,96299.09
2022-11-15T13:35:45.311Z,96295.63
2022-11-15T13:39:46.830Z,96294.28
2022-11-15T13:43:51.800Z,96329.25
2022-11-15T13:48:01.690Z,96329.66
2022-11-15T13:52:05.252Z,96290.81
2022-11-15T13:56:09.339Z,96288.88
2022-11-15T14:00:37.001Z,96294.97
2022-11-15T14:04:54.705Z,96264.97
2022-11-15T14:09:44.156Z,96257.47
2022-11-15T14:14:06.555Z,96280.66
2022-11-15T14:18:11.446Z,96272.72
2022-11-15T14:22:27.294Z,96257.38
2022-11-15T14:26:39.539Z,96255.94
2022-11-15T14:30:43.889Z,96235.06
2022-11-15T14:34:48.748Z,96268.38
2022-11-15T14:38:56.532Z,96214.69
2022-11-15T14:42:57.111Z,96254.25
2022-11-15T14:47:00.699Z,96216.34
2022-11-15T14:51:06.671Z,96205.44
2022-11-15T14:55:22.917Z,96222.81
2022-11-15T14:59:23.929Z,96186.22
2022-11-15T15:03:26.370Z,96231.41
2022-11-15T15:07:31.780Z,96207.22
2022-11-15T15:11:36.394Z,96217.28
2022-11-15T15:15:40.509Z,96215.94
2022-11-15T15:19:41.326Z,96198.72
2022-11-15T15:23:45.529Z,96186.44
2022-11-15T15:27:45.614Z,96236.59
2022-11-15T15:31:45.749Z,96221.00
2022-11-15T15:35:46.328Z,96221.44
2022-11-15T15:39:49.098Z,96233.16
2022-11-15T15:43:49.480Z,96216.06
2022-11-15T15:47:51.138Z,96209.00
2022-11-15T15:51:51.214Z,96222.75
2022-11-15T15:55:53.947Z,96212.69
2022-11-15T15:59:54.113Z,96223.56
2022-11-15T16:03:54.318Z,96224.88
2022-11-15T16:07:54.818Z,96224.72
2022-11-15T16:11:57.522Z,96217.44
2022-11-15T16:15:59.016Z,96229.19
2022-11-15T16:19:59.099Z,96226.09
2022-11-15T16:23:59.232Z,96228.34
2022-11-15T16:28:01.931Z,96231.91
2022-11-15T16:32:02.291Z,96230.63
2022-11-15T16:36:02.634Z,96231.22
2022-11-15T16:40:02.755Z,96229.44
2022-11-15T16:44:05.432Z,96227.66
2022-11-15T16:48:06.157Z,96226.66
2022-11-15T16:52:08.022Z,96218.69
2022-11-15T16:56:21.016Z,96220.88
2022-11-15T17:00:24.967Z,96217.16
2022-11-15T17:04:27.786Z,96216.13
2022-11-15T17:08:28.745Z,96208.22
2022-11-15T17:12:31.049Z,96205.81
2022-11-15T17:16:35.278Z,96204.50
2022-11-15T17:20:36.015Z,96214.09
2022-11-15T17:24:36.349Z,96208.75
2022-11-15T17:28:37.692Z,96211.44
2022-11-15T17:32:42.030Z,96208.22
2022-11-15T17:36:42.125Z,96203.94
2022-11-15T17:40:42.253Z,96195.97
2022-11-15T17:44:42.296Z,96202.34
2022-11-15T17:48:45.013Z,96197.81
2022-11-15T17:52:45.376Z,96187.97
2022-11-15T17:56:45.595Z,96185.31
2022-11-15T18:00:45.717Z,96185.78
2022-11-15T18:04:48.397Z,96184.97
2022-11-15T18:08:51.004Z,96184.38
2022-11-15T18:12:51.145Z,96185.50
2022-11-15T18:16:51.838Z,96172.97
2022-11-15T18:21:04.335Z,96165.50
2022-11-15T18:25:04.500Z,96161.78
2022-11-15T18:29:07.477Z,96170.59
2022-11-15T18:33:07.572Z,96177.31
2022-11-15T18:37:10.563Z,96172.56
2022-11-15T18:41:14.005Z,96166.72
2022-11-15T18:45:14.609Z,96162.44
2022-11-15T18:49:19.752Z,96160.28
2022-11-15T18:53:22.760Z,96152.56
2022-11-15T18:57:23.023Z,96165.09
2022-11-15T19:01:26.220Z,96164.56
2022-11-15T19:05:26.396Z,96141.72
2022-11-15T19:09:32.908Z,96163.00
2022-11-15T19:13:33.657Z,96143.59
2022-11-15T19:17:37.055Z,96167.81
2022-11-15T19:21:38.405Z,96164.63
2022-11-15T19:25:41.196Z,96119.91
2022-11-15T19:29:41.987Z,96159.28
2022-11-15T19:33:44.096Z,96150.22
2022-11-15T19:37:44.221Z,96160.09
2022-11-15T19:41:48.348Z,96147.34
2022-11-15T19:46:01.038Z,96151.31
2022-11-15T19:50:02.502Z,96143.88
2022-11-15T19:54:06.804Z,96127.09
2022-11-15T19:58:09.843Z,96145.44
2022-11-15T20:02:11.718Z,96115.13
2022-11-15T20:06:15.758Z,96110.78
2022-11-15T20:10:19.688Z,96126.25
2022-11-15T20:14:24.212Z,96110.72
2022-11-15T20:18:26.870Z,96127.19
2022-11-15T20:22:28.993Z,96135.72
2022-11-15T20:26:30.356Z,96124.06
2022-11-15T20:30:33.116Z,96136.34
2022-11-15T20:34:33.248Z,96122.78
2022-11-15T20:38:35.229Z,96127.81
2022-11-15T20:42:35.645Z,96124.31
2022-11-15T20:46:38.330Z,96121.19
2022-11-15T20:50:43.266Z,96118.22
2022-11-15T20:54:43.818Z,96111.84
2022-11-15T20:58:45.808Z,96116.09
2022-11-15T21:02:48.568Z,96120.84
2022-11-15T21:06:49.090Z,96095.75
2022-11-15T21:11:07.637Z,96086.22
2022-11-15T21:15:12.257Z,96091.03
2022-11-15T21:19:15.547Z,96072.91
2022-11-15T21:23:15.680Z,96088.81
2022-11-15T21:27:15.839Z,96079.22
2022-11-15T21:31:15.984Z,96071.25
2022-11-15T21:35:18.830Z,96068.31
2022-11-15T21:39:19.382Z,96069.59
2022-11-15T21:43:19.879Z,96070.91
2022-11-15T21:47:19.956Z,96070.66
2022-11-15T21:51:22.733Z,96069.09
2022-11-15T21:55:22.863Z,96067.25
2022-11-15T21:59:23.194Z,96053.97
2022-11-15T22:03:23.319Z,96044.09
2022-11-15T22:07:26.024Z,96039.28
2022-11-15T22:11:26.548Z,96008.91
2022-11-15T22:15:26.629Z,96020.09
2022-11-15T22:19:26.914Z,96017.94
2022-11-15T22:23:31.763Z,96010.53
2022-11-15T22:27:32.101Z,95996.09
2022-11-15T22:31:32.627Z,95994.44
2022-11-15T22:35:32.871Z,95998.59
2022-11-15T22:39:35.863Z,95994.81
2022-11-15T22:43:36.763Z,95979.22
2022-11-15T22:47:36.922Z,95984.97
2022-11-15T22:51:39.015Z,95980.38
2022-11-15T22:55:42.656Z,95985.66
2022-11-15T22:59:42.875Z,95984.19
2022-11-15T23:03:43.106Z,95981.53
2022-11-15T23:07:43.656Z,95974.03
2022-11-15T23:11:58.917Z,95971.59
2022-11-15T23:16:19.937Z,95961.72
2022-11-15T23:20:42.042Z,95967.19
2022-11-15T23:24:41.110Z,95956.81
2022-11-15T23:28:43.917Z,95939.31
2022-11-15T23:32:56.554Z,95941.31
2022-11-15T23:36:56.873Z,95945.53
2022-11-15T23:40:58.083Z,95944.94
2022-11-15T23:45:00.942Z,95948.81
2022-11-15T23:49:01.375Z,95935.09
2022-11-15T23:53:01.575Z,95921.69
2022-11-15T23:57:01.773Z,95920.56
